createdAt,value
2023-01-03T00:01:39.435Z,99.90
2023-01-03T00:05:01.878Z,99.90
2023-01-03T00:08:24.070Z,99.90
2023-01-03T00:12:05.955Z,99.90
2023-01-03T00:15:28.369Z,99.90
2023-01-03T00:18:50.521Z,99.90
2023-01-03T00:22:13.446Z,99.90
2023-01-03T00:25:36.516Z,99.90
2023-01-03T00:28:58.980Z,99.90
2023-01-03T00:32:21.661Z,99.90
2023-01-03T00:35:43.733Z,99.90
2023-01-03T00:39:06.100Z,99.90
2023-01-03T00:42:28.353Z,99.90
2023-01-03T00:45:50.519Z,99.90
2023-01-03T00:49:12.797Z,99.90
2023-01-03T00:52:35.006Z,99.90
2023-01-03T00:56:01.776Z,99.90
2023-01-03T00:59:23.867Z,99.90
2023-01-03T01:02:46.120Z,99.90
2023-01-03T01:06:30.069Z,99.90
2023-01-03T01:09:52.147Z,99.90
2023-01-03T01:13:14.303Z,99.90
2023-01-03T01:16:36.490Z,99.90
2023-01-03T01:19:58.669Z,99.90
2023-01-03T01:23:20.862Z,99.90
2023-01-03T01:26:43.199Z,99.90
2023-01-03T01:30:05.859Z,99.90
2023-01-03T01:33:28.512Z,99.90
2023-01-03T01:36:50.844Z,99.80
2023-01-03T01:40:13.032Z,99.70
2023-01-03T01:43:53.671Z,99.60
2023-01-03T01:47:33.286Z,99.40
2023-01-03T01:50:56.800Z,99.40
2023-01-03T01:54:19.132Z,99.40
2023-01-03T01:57:41.998Z,99.30
2023-01-03T02:01:09.216Z,99.20
2023-01-03T02:04:34.433Z,99.10
2023-01-03T02:07:56.678Z,99.00
2023-01-03T02:11:18.745Z,99.30
2023-01-03T02:14:46.880Z,98.80
2023-01-03T02:18:15.257Z,98.80
2023-01-03T02:21:46.337Z,98.80
2023-01-03T02:25:25.717Z,98.80
2023-01-03T02:28:54.069Z,98.50
2023-01-03T02:32:19.626Z,98.80
2023-01-03T02:35:48.390Z,98.70
2023-01-03T02:39:23.528Z,98.60
2023-01-03T02:43:01.565Z,98.60
2023-01-03T02:46:23.696Z,98.60
2023-01-03T02:49:49.623Z,98.50
2023-01-03T02:53:13.714Z,98.40
2023-01-03T02:56:38.448Z,98.30
2023-01-03T03:00:08.186Z,98.20
2023-01-03T03:03:32.743Z,98.10
2023-01-03T03:07:15.747Z,98.10
2023-01-03T03:10:58.031Z,98.10
2023-01-03T03:14:33.448Z,97.90
2023-01-03T03:17:57.107Z,97.90
2023-01-03T03:21:39.139Z,97.80
2023-01-03T03:25:04.149Z,97.70
2023-01-03T03:28:35.981Z,97.70
2023-01-03T03:31:58.174Z,97.60
2023-01-03T03:35:24.328Z,97.50
2023-01-03T03:38:46.513Z,97.40
2023-01-03T03:42:42.361Z,97.30
2023-01-03T03:46:07.072Z,97.30
2023-01-03T03:49:38.897Z,97.20
2023-01-03T03:53:03.359Z,97.20
2023-01-03T03:56:28.322Z,97.10
2023-01-03T03:59:53.047Z,97.10
2023-01-03T04:03:15.819Z,97.00
2023-01-03T04:06:44.085Z,96.90
2023-01-03T04:10:06.576Z,96.90
2023-01-03T04:13:28.814Z,96.80
2023-01-03T04:16:50.968Z,96.70
2023-01-03T04:20:13.882Z,96.80
2023-01-03T04:23:36.139Z,96.70
2023-01-03T04:27:00.270Z,96.70
2023-01-03T04:30:22.578Z,96.60
2023-01-03T04:33:44.673Z,96.70
2023-01-03T04:37:06.832Z,96.60
2023-01-03T04:40:29.122Z,96.50
2023-01-03T04:44:04.870Z,96.50
2023-01-03T04:47:27.213Z,96.40
2023-01-03T04:50:53.556Z,96.40
2023-01-03T04:54:15.656Z,96.30
2023-01-03T04:57:37.722Z,96.20
2023-01-03T05:01:04.374Z,96.20
2023-01-03T05:04:26.711Z,96.10
2023-01-03T05:07:49.040Z,96.00
2023-01-03T05:11:11.943Z,95.90
2023-01-03T05:14:37.172Z,95.90
2023-01-03T05:17:59.303Z,96.40
2023-01-03T05:21:40.762Z,96.40
2023-01-03T05:25:21.374Z,96.50
2023-01-03T05:28:45.907Z,96.60
2023-01-03T05:32:08.058Z,96.50
2023-01-03T05:35:30.227Z,96.40
2023-01-03T05:38:52.840Z,96.50
2023-01-03T05:42:14.926Z,96.50
2023-01-03T05:45:37.649Z,96.50
2023-01-03T05:48:59.897Z,96.70
2023-01-03T05:52:22.535Z,96.90
2023-01-03T05:55:44.677Z,96.70
2023-01-03T05:59:09.721Z,96.60
2023-01-03T06:02:31.904Z,96.70
2023-01-03T06:05:54.207Z,96.70
2023-01-03T06:09:16.629Z,96.40
2023-01-03T06:12:38.744Z,96.60
2023-01-03T06:16:24.975Z,96.70
2023-01-03T06:19:47.277Z,96.40
2023-01-03T06:23:09.387Z,96.70
2023-01-03T06:26:31.621Z,96.40
2023-01-03T06:29:53.777Z,96.30
2023-01-03T06:33:16.214Z,96.40
2023-01-03T06:36:38.463Z,96.20
2023-01-03T06:40:00.700Z,96.40
2023-01-03T06:43:22.899Z,96.10
2023-01-03T06:47:03.723Z,96.30
2023-01-03T06:50:44.414Z,96.00
2023-01-03T06:54:07.455Z,95.60
2023-01-03T06:57:29.631Z,95.60
2023-01-03T07:00:52.016Z,95.00
2023-01-03T07:04:14.326Z,94.90
2023-01-03T07:07:36.508Z,95.00
2023-01-03T07:10:58.722Z,95.00
2023-01-03T07:14:20.917Z,95.00
2023-01-03T07:17:43.369Z,95.50
2023-01-03T07:21:06.366Z,95.50
2023-01-03T07:24:28.752Z,95.90
2023-01-03T07:27:57.560Z,96.60
2023-01-03T07:31:22.843Z,96.50
2023-01-03T07:34:45.010Z,96.70
2023-01-03T07:38:10.145Z,96.70
2023-01-03T07:41:58.630Z,97.00
2023-01-03T07:45:22.015Z,97.20
2023-01-03T07:48:44.901Z,97.10
2023-01-03T07:52:07.069Z,96.90
2023-01-03T07:55:29.242Z,96.80
2023-01-03T07:58:52.045Z,96.60
2023-01-03T08:02:14.705Z,96.90
2023-01-03T08:05:37.367Z,96.80
2023-01-03T08:09:17.947Z,96.60
2023-01-03T08:12:58.911Z,96.40
2023-01-03T08:16:21.123Z,96.30
2023-01-03T08:19:45.779Z,96.00
2023-01-03T08:23:08.427Z,95.90
2023-01-03T08:26:30.637Z,95.80
2023-01-03T08:29:52.755Z,95.60
2023-01-03T08:33:15.753Z,95.30
2023-01-03T08:36:43.181Z,95.20
2023-01-03T08:40:05.747Z,95.10
2023-01-03T08:43:28.623Z,94.80
2023-01-03T08:46:53.447Z,94.50
2023-01-03T08:50:15.869Z,94.60
2023-01-03T08:53:38.235Z,94.70
2023-01-03T08:57:00.500Z,94.30
2023-01-03T09:00:22.686Z,94.40
2023-01-03T09:03:44.913Z,94.30
2023-01-03T09:07:07.238Z,93.70
2023-01-03T09:10:29.451Z,93.70
2023-01-03T09:13:51.788Z,94.30
2023-01-03T09:17:14.002Z,93.90
2023-01-03T09:20:36.151Z,94.40
2023-01-03T09:24:01.050Z,94.70
2023-01-03T09:27:23.296Z,94.70
2023-01-03T09:30:45.493Z,94.70
2023-01-03T09:34:07.820Z,94.60
2023-01-03T09:37:30.090Z,94.90
2023-01-03T09:41:00.250Z,94.70
2023-01-03T09:44:22.394Z,94.70
2023-01-03T09:47:44.931Z,94.60
2023-01-03T09:51:30.574Z,94.60
2023-01-03T09:55:11.687Z,94.60
2023-01-03T09:58:52.861Z,94.50
2023-01-03T10:02:49.289Z,94.30
2023-01-03T10:06:17.555Z,94.40
2023-01-03T10:09:54.279Z,94.10
2023-01-03T10:13:34.523Z,94.30
2023-01-03T10:16:56.720Z,94.10
2023-01-03T10:20:18.901Z,94.20
2023-01-03T10:23:41.303Z,94.20
2023-01-03T10:27:07.500Z,93.90
2023-01-03T10:30:41.604Z,94.00
2023-01-03T10:34:05.363Z,93.90
2023-01-03T10:37:27.766Z,94.10
2023-01-03T10:40:55.453Z,93.90
2023-01-03T10:44:26.061Z,93.90
2023-01-03T10:47:59.030Z,93.90
2023-01-03T10:51:21.158Z,93.90
2023-01-03T10:54:43.716Z,93.70
2023-01-03T10:58:16.218Z,94.20
2023-01-03T11:01:38.665Z,93.90
2023-01-03T11:05:12.468Z,94.10
2023-01-03T11:08:38.068Z,93.70
2023-01-03T11:12:03.532Z,93.40
2023-01-03T11:15:39.123Z,93.30
2023-01-03T11:19:02.919Z,92.70
2023-01-03T11:22:38.168Z,92.60
2023-01-03T11:26:19.281Z,92.40
2023-01-03T11:29:57.819Z,92.40
2023-01-03T11:33:29.552Z,92.60
2023-01-03T11:36:58.170Z,93.00
2023-01-03T11:40:25.950Z,93.10
2023-01-03T11:44:07.024Z,93.00
2023-01-03T11:47:44.420Z,93.40
2023-01-03T11:51:23.178Z,93.20
2023-01-03T11:54:53.175Z,93.00
2023-01-03T11:58:34.205Z,93.30
2023-01-03T12:02:11.499Z,93.10
2023-01-03T12:05:43.999Z,93.40
2023-01-03T12:09:24.778Z,93.30
2023-01-03T12:12:58.060Z,93.20
2023-01-03T12:16:25.299Z,93.20
2023-01-03T12:19:57.323Z,93.30
2023-01-03T12:23:31.784Z,93.10
2023-01-03T12:26:56.020Z,92.90
2023-01-03T12:30:55.165Z,93.00
2023-01-03T12:34:29.651Z,92.90
2023-01-03T12:37:52.203Z,92.90
2023-01-03T12:41:23.181Z,92.90
2023-01-03T12:44:46.679Z,92.80
2023-01-03T12:48:13.360Z,92.80
2023-01-03T12:51:35.741Z,92.90
2023-01-03T12:55:01.645Z,92.90
2023-01-03T12:58:26.396Z,92.80
2023-01-03T13:01:53.667Z,92.80
2023-01-03T13:05:19.997Z,92.80
2023-01-03T13:08:50.828Z,92.80
2023-01-03T13:12:17.534Z,92.70
2023-01-03T13:15:39.847Z,92.80
2023-01-03T13:19:22.440Z,92.70
2023-01-03T13:22:54.338Z,92.80
2023-01-03T13:26:18.246Z,92.90
2023-01-03T13:29:43.466Z,92.80
2023-01-03T13:33:11.749Z,92.70
2023-01-03T13:36:52.549Z,92.50
2023-01-03T13:40:17.389Z,92.70
2023-01-03T13:43:40.333Z,92.70
2023-01-03T13:47:03.611Z,92.70
2023-01-03T13:50:31.116Z,92.70
2023-01-03T13:53:59.251Z,92.70
2023-01-03T13:57:29.413Z,92.60
2023-01-03T14:00:52.699Z,92.60
2023-01-03T14:04:29.042Z,92.50
2023-01-03T14:07:56.094Z,92.70
2023-01-03T14:11:30.453Z,92.70
2023-01-03T14:14:56.188Z,92.70
2023-01-03T14:18:22.294Z,92.70
2023-01-03T14:21:47.497Z,92.60
2023-01-03T14:25:28.568Z,92.60
2023-01-03T14:28:52.610Z,92.50
2023-01-03T14:32:22.881Z,92.70
2023-01-03T14:35:45.135Z,92.70
2023-01-03T14:39:08.067Z,92.60
2023-01-03T14:42:30.503Z,92.70
2023-01-03T14:45:54.390Z,92.70
2023-01-03T14:49:32.307Z,92.60
2023-01-03T14:52:56.174Z,92.50
2023-01-03T14:56:20.944Z,92.60
2023-01-03T14:59:43.362Z,92.70
2023-01-03T15:03:09.782Z,92.70
2023-01-03T15:06:32.346Z,92.70
2023-01-03T15:10:05.762Z,92.80
2023-01-03T15:14:00.501Z,92.60
2023-01-03T15:17:25.742Z,92.70
2023-01-03T15:20:50.405Z,92.70
2023-01-03T15:24:17.279Z,92.70
2023-01-03T15:27:39.477Z,92.70
2023-01-03T15:31:28.859Z,92.60
2023-01-03T15:34:51.145Z,92.60
2023-01-03T15:38:32.058Z,92.50
2023-01-03T15:42:43.559Z,92.60
2023-01-03T15:46:05.034Z,92.70
2023-01-03T15:49:28.237Z,92.60
2023-01-03T15:52:50.406Z,92.60
2023-01-03T15:56:12.491Z,92.50
2023-01-03T15:59:42.951Z,92.50
2023-01-03T16:03:05.860Z,92.60
2023-01-03T16:06:28.233Z,92.60
2023-01-03T16:09:50.385Z,92.70
2023-01-03T16:13:12.601Z,92.80
2023-01-03T16:16:36.253Z,93.00
2023-01-03T16:19:59.408Z,92.80
2023-01-03T16:23:26.127Z,92.80
2023-01-03T16:26:48.397Z,92.80
2023-01-03T16:30:12.593Z,92.80
2023-01-03T16:33:35.967Z,92.90
2023-01-03T16:36:58.081Z,92.80
2023-01-03T16:40:20.998Z,92.70
2023-01-03T16:43:43.138Z,92.80
2023-01-03T16:47:15.914Z,92.70
2023-01-03T16:50:39.913Z,92.80
2023-01-03T16:54:04.076Z,92.90
2023-01-03T16:57:28.470Z,92.90
2023-01-03T17:00:51.224Z,93.10
2023-01-03T17:04:13.725Z,93.20
2023-01-03T17:07:36.157Z,93.60
2023-01-03T17:10:58.550Z,93.60
2023-01-03T17:14:21.510Z,93.70
2023-01-03T17:17:44.212Z,93.80
2023-01-03T17:21:06.520Z,93.80
2023-01-03T17:24:29.280Z,93.60
2023-01-03T17:27:57.334Z,93.90
2023-01-03T17:31:21.273Z,94.10
2023-01-03T17:34:43.495Z,94.40
2023-01-03T17:38:25.193Z,94.40
2023-01-03T17:42:06.468Z,94.50
2023-01-03T17:45:47.272Z,94.50
2023-01-03T17:49:24.654Z,94.80
2023-01-03T17:52:51.873Z,94.90
2023-01-03T17:56:18.651Z,94.90
2023-01-03T17:59:40.801Z,95.10
2023-01-03T18:03:05.636Z,95.10
2023-01-03T18:06:27.926Z,95.30
2023-01-03T18:09:50.904Z,95.10
2023-01-03T18:13:20.461Z,94.80
2023-01-03T18:16:43.097Z,94.80
2023-01-03T18:20:06.455Z,95.10
2023-01-03T18:23:30.643Z,98.00
2023-01-03T18:26:54.459Z,95.60
2023-01-03T18:30:16.964Z,96.80
2023-01-03T18:33:39.192Z,96.70
2023-01-03T18:37:01.591Z,95.70
2023-01-03T18:40:28.664Z,95.90
2023-01-03T18:43:50.922Z,98.20
2023-01-03T18:47:13.610Z,99.80
2023-01-03T18:50:36.764Z,99.90
2023-01-03T18:53:59.531Z,98.20
2023-01-03T18:57:22.395Z,97.70
2023-01-03T19:00:45.888Z,96.80
2023-01-03T19:04:08.301Z,97.60
2023-01-03T19:07:34.561Z,98.30
2023-01-03T19:11:00.000Z,97.00
2023-01-03T19:14:22.115Z,96.80
2023-01-03T19:17:44.351Z,96.60
2023-01-03T19:21:08.491Z,97.90
2023-01-03T19:24:38.481Z,98.10
2023-01-03T19:28:03.661Z,96.50
2023-01-03T19:31:26.908Z,96.70
2023-01-03T19:34:49.379Z,97.70
2023-01-03T19:38:11.635Z,97.30
2023-01-03T19:41:53.868Z,97.70
2023-01-03T19:45:18.945Z,96.10
2023-01-03T19:48:41.215Z,96.20
2023-01-03T19:52:03.407Z,96.30
2023-01-03T19:55:29.658Z,96.00
2023-01-03T19:58:54.454Z,96.50
2023-01-03T20:02:32.366Z,96.70
2023-01-03T20:05:55.177Z,97.90
2023-01-03T20:09:17.400Z,98.20
2023-01-03T20:12:39.690Z,97.50
2023-01-03T20:16:02.243Z,97.80
2023-01-03T20:19:24.613Z,97.60
2023-01-03T20:23:05.160Z,97.70
2023-01-03T20:26:29.959Z,97.50
2023-01-03T20:29:52.134Z,97.70
2023-01-03T20:33:14.412Z,97.40
2023-01-03T20:36:40.191Z,98.00
2023-01-03T20:40:02.415Z,98.00
2023-01-03T20:43:24.981Z,98.00
2023-01-03T20:46:47.451Z,98.00
2023-01-03T20:50:17.714Z,98.10
2023-01-03T20:53:43.003Z,98.20
2023-01-03T20:57:13.692Z,97.70
2023-01-03T21:00:37.480Z,98.30
2023-01-03T21:03:59.746Z,97.70
2023-01-03T21:07:49.178Z,97.90
2023-01-03T21:11:12.286Z,98.30
2023-01-03T21:14:34.543Z,98.20
2023-01-03T21:17:56.703Z,98.30
2023-01-03T21:21:20.037Z,98.30
2023-01-03T21:24:45.827Z,98.40
2023-01-03T21:28:08.890Z,98.30
2023-01-03T21:31:32.619Z,98.30
2023-01-03T21:34:54.901Z,98.30
2023-01-03T21:38:17.384Z,98.20
2023-01-03T21:41:59.556Z,98.20
2023-01-03T21:45:22.331Z,98.10
2023-01-03T21:48:44.911Z,98.00
2023-01-03T21:52:07.159Z,97.90
2023-01-03T21:55:30.866Z,98.20
2023-01-03T21:58:53.104Z,98.10
2023-01-03T22:02:33.948Z,97.90
2023-01-03T22:06:09.598Z,97.70
2023-01-03T22:09:50.371Z,97.90
2023-01-03T22:13:13.280Z,97.90
2023-01-03T22:16:35.506Z,97.80
2023-01-03T22:19:57.685Z,97.80
2023-01-03T22:23:20.148Z,98.00
2023-01-03T22:26:42.388Z,97.90
2023-01-03T22:30:05.982Z,97.90
2023-01-03T22:33:28.134Z,98.10
2023-01-03T22:36:50.349Z,98.00
2023-01-03T22:40:13.622Z,98.00
2023-01-03T22:43:35.840Z,98.10
2023-01-03T22:46:58.244Z,97.90
2023-01-03T22:50:20.483Z,97.90
2023-01-03T22:53:43.963Z,97.80
2023-01-03T22:57:06.190Z,97.70
2023-01-03T23:00:28.367Z,98.10
2023-01-03T23:03:50.643Z,97.70
2023-01-03T23:07:12.815Z,97.60
2023-01-03T23:10:35.008Z,97.90
2023-01-03T23:13:57.165Z,97.60
2023-01-03T23:17:38.107Z,97.50
2023-01-03T23:21:06.403Z,97.60
2023-01-03T23:24:28.599Z,97.70
2023-01-03T23:27:50.705Z,97.60
2023-01-03T23:31:12.963Z,97.60
2023-01-03T23:34:35.163Z,97.60
2023-01-03T23:37:58.030Z,97.80
2023-01-03T23:41:20.307Z,98.00
2023-01-03T23:44:42.512Z,97.70
2023-01-03T23:48:04.788Z,97.80
2023-01-03T23:51:27.116Z,97.70
2023-01-03T23:54:53.388Z,98.10
2023-01-03T23:58:18.474Z,98.00
